createdAt,value
2017-08-29T00:01:29.778Z,64.25
2017-08-29T00:03:31.255Z,65.11
2017-08-29T00:05:32.704Z,64.25
2017-08-29T00:07:34.496Z,64.63
2017-08-29T00:09:36.371Z,65.20
2017-08-29T00:11:37.757Z,65.01
2017-08-29T00:13:39.181Z,65.11
2017-08-29T00:15:40.633Z,64.25
2017-08-29T00:17:42.271Z,64.34
2017-08-29T00:19:44.139Z,64.82
2017-08-29T00:21:45.622Z,64.63
2017-08-29T00:23:47.092Z,64.98
2017-08-29T00:25:48.760Z,64.79
2017-08-29T00:27:50.587Z,64.92
2017-08-29T00:29:52.415Z,65.17
2017-08-29T00:32:33.911Z,65.17
2017-08-29T00:34:35.620Z,65.56
2017-08-29T00:36:37.042Z,65.46
2017-08-29T00:38:38.466Z,65.46
2017-08-29T00:40:40.150Z,65.37
2017-08-29T00:42:41.874Z,65.56
2017-08-29T00:44:43.351Z,65.27
2017-08-29T00:46:44.844Z,66.24
2017-08-29T00:49:27.255Z,65.94
2017-08-29T00:51:28.676Z,66.24
2017-08-29T00:53:30.656Z,66.04
2017-08-29T00:55:32.117Z,66.71
2017-08-29T00:57:33.641Z,66.24
2017-08-29T00:59:35.208Z,66.33
2017-08-29T01:01:36.669Z,66.62
2017-08-29T01:03:38.094Z,66.71
2017-08-29T01:05:39.518Z,66.52
2017-08-29T01:07:40.945Z,66.71
2017-08-29T01:09:42.365Z,66.49
2017-08-29T01:11:43.882Z,66.62
2017-08-29T01:13:45.422Z,66.97
2017-08-29T01:15:46.863Z,67.07
2017-08-29T01:17:48.435Z,66.97
2017-08-29T01:19:49.887Z,67.65
2017-08-29T01:21:51.313Z,67.55
2017-08-29T01:23:52.740Z,68.03
2017-08-29T01:25:54.316Z,67.93
2017-08-29T01:27:55.795Z,68.13
2017-08-29T01:29:57.257Z,67.45
2017-08-29T01:31:58.713Z,67.74
2017-08-29T01:34:00.141Z,68.03
2017-08-29T01:36:41.698Z,67.93
2017-08-29T01:38:43.122Z,68.60
2017-08-29T01:40:44.541Z,68.51
2017-08-29T01:42:45.964Z,68.67
2017-08-29T01:44:47.392Z,68.80
2017-08-29T01:46:48.808Z,68.70
2017-08-29T01:48:50.236Z,68.96
2017-08-29T01:50:51.736Z,68.57
2017-08-29T01:52:53.412Z,69.06
2017-08-29T01:54:54.838Z,69.24
2017-08-29T01:56:56.343Z,69.24
2017-08-29T01:58:57.990Z,68.96
2017-08-29T02:00:59.398Z,68.96
2017-08-29T02:03:00.822Z,69.15
2017-08-29T02:05:02.282Z,69.34
2017-08-29T02:07:03.712Z,69.06
2017-08-29T02:09:05.353Z,69.34
2017-08-29T02:11:06.793Z,69.06
2017-08-29T02:13:08.296Z,69.24
2017-08-29T02:15:09.766Z,69.24
2017-08-29T02:17:11.298Z,69.06
2017-08-29T02:19:12.722Z,69.44
2017-08-29T02:21:14.172Z,69.92
2017-08-29T02:23:15.668Z,69.24
2017-08-29T02:25:17.231Z,69.34
2017-08-29T02:27:18.876Z,69.92
2017-08-29T02:29:20.436Z,70.17
2017-08-29T02:31:21.900Z,70.46
2017-08-29T02:33:23.410Z,70.30
2017-08-29T02:35:24.938Z,70.17
2017-08-29T02:38:07.351Z,70.75
2017-08-29T02:40:08.778Z,70.40
2017-08-29T02:42:10.401Z,70.68
2017-08-29T02:44:11.890Z,71.04
2017-08-29T02:46:13.441Z,71.14
2017-08-29T02:48:14.858Z,70.84
2017-08-29T02:50:16.277Z,70.84
2017-08-29T02:52:17.854Z,71.14
2017-08-29T02:55:00.331Z,71.33
2017-08-29T02:57:01.754Z,71.33
2017-08-29T02:59:03.177Z,71.52
2017-08-29T03:01:04.602Z,71.42
2017-08-29T03:03:06.020Z,71.52
2017-08-29T03:05:07.434Z,71.42
2017-08-29T03:07:08.858Z,71.14
2017-08-29T03:09:10.524Z,71.33
2017-08-29T03:11:11.934Z,71.23
2017-08-29T03:13:13.363Z,71.42
2017-08-29T03:15:14.916Z,71.23
2017-08-29T03:17:16.343Z,71.33
2017-08-29T03:19:17.777Z,71.71
2017-08-29T03:21:19.207Z,71.42
2017-08-29T03:23:20.848Z,71.52
2017-08-29T03:26:03.267Z,71.52
2017-08-29T03:28:04.680Z,71.23
2017-08-29T03:30:06.420Z,71.42
2017-08-29T03:32:08.002Z,71.42
2017-08-29T03:34:09.425Z,71.14
2017-08-29T03:36:10.846Z,71.67
2017-08-29T03:38:12.372Z,71.58
2017-08-29T03:40:13.887Z,71.91
2017-08-29T03:42:56.573Z,71.96
2017-08-29T03:44:57.995Z,72.06
2017-08-29T03:46:59.418Z,72.06
2017-08-29T03:49:01.049Z,72.44
2017-08-29T03:51:02.829Z,72.44
2017-08-29T03:53:04.397Z,72.73
2017-08-29T03:55:05.817Z,72.44
2017-08-29T03:57:07.226Z,72.64
2017-08-29T03:59:08.653Z,72.44
2017-08-29T04:01:10.084Z,73.02
2017-08-29T04:03:11.511Z,73.31
2017-08-29T04:05:13.013Z,73.50
2017-08-29T04:07:14.572Z,73.50
2017-08-29T04:09:16.008Z,73.31
2017-08-29T04:11:17.608Z,73.21
2017-08-29T04:14:00.914Z,73.31
2017-08-29T04:16:02.748Z,73.88
2017-08-29T04:18:04.295Z,73.88
2017-08-29T04:20:05.780Z,73.21
2017-08-29T04:22:07.463Z,73.88
2017-08-29T04:24:08.913Z,73.56
2017-08-29T04:26:10.443Z,74.13
2017-08-29T04:28:12.261Z,74.04
2017-08-29T04:30:54.802Z,73.94
2017-08-29T04:32:56.235Z,74.33
2017-08-29T04:34:57.652Z,74.04
2017-08-29T04:36:59.075Z,73.75
2017-08-29T04:39:00.595Z,74.43
2017-08-29T04:41:02.019Z,74.23
2017-08-29T04:43:03.441Z,74.33
2017-08-29T04:45:04.862Z,74.23
2017-08-29T04:47:06.427Z,74.13
2017-08-29T04:49:07.841Z,74.90
2017-08-29T04:51:09.482Z,74.71
2017-08-29T04:53:11.273Z,74.81
2017-08-29T04:55:12.632Z,74.71
2017-08-29T04:57:14.275Z,74.62
2017-08-29T04:59:15.808Z,74.62
2017-08-29T05:01:17.237Z,74.62
2017-08-29T05:03:18.667Z,74.81
2017-08-29T05:05:20.077Z,74.81
2017-08-29T05:07:21.528Z,74.55
2017-08-29T05:09:22.965Z,74.90
2017-08-29T05:11:24.391Z,74.71
2017-08-29T05:13:25.813Z,74.71
2017-08-29T05:15:27.250Z,74.55
2017-08-29T05:17:29.001Z,74.81
2017-08-29T05:19:30.880Z,75.20
2017-08-29T05:21:32.812Z,74.90
2017-08-29T05:23:34.218Z,75.13
2017-08-29T05:25:35.651Z,75.29
2017-08-29T05:27:37.075Z,75.81
2017-08-29T05:29:38.721Z,75.71
2017-08-29T05:31:40.241Z,75.81
2017-08-29T05:33:41.786Z,75.62
2017-08-29T05:35:43.682Z,75.32
2017-08-29T05:37:45.184Z,75.23
2017-08-29T05:39:46.768Z,75.42
2017-08-29T05:41:48.268Z,75.04
2017-08-29T05:43:49.781Z,75.71
2017-08-29T05:45:51.285Z,75.32
2017-08-29T05:47:52.938Z,75.52
2017-08-29T05:49:54.674Z,75.32
2017-08-29T05:51:56.489Z,75.52
2017-08-29T05:53:58.016Z,75.81
2017-08-29T05:55:59.893Z,75.62
2017-08-29T05:58:01.462Z,75.42
2017-08-29T06:00:03.568Z,74.98
2017-08-29T06:02:05.462Z,75.75
2017-08-29T06:04:47.870Z,75.75
2017-08-29T06:06:49.296Z,75.65
2017-08-29T06:08:50.734Z,76.04
2017-08-29T06:10:52.257Z,75.46
2017-08-29T06:12:53.682Z,76.23
2017-08-29T06:14:55.313Z,75.84
2017-08-29T06:16:56.741Z,75.75
2017-08-29T06:18:58.171Z,75.75
2017-08-29T06:20:59.778Z,75.75
2017-08-29T06:23:01.239Z,75.69
2017-08-29T06:25:02.913Z,75.49
2017-08-29T06:27:04.420Z,75.40
2017-08-29T06:29:06.156Z,75.31
2017-08-29T06:31:07.602Z,75.98
2017-08-29T06:33:09.361Z,75.88
2017-08-29T06:35:51.783Z,75.05
2017-08-29T06:37:54.910Z,73.39
2017-08-29T06:39:56.310Z,70.57
2017-08-29T06:41:57.810Z,67.75
2017-08-29T06:43:59.253Z,66.24
2017-08-29T06:46:00.752Z,66.40
2017-08-29T06:48:02.196Z,67.17
2017-08-29T06:50:03.728Z,68.13
2017-08-29T06:52:05.431Z,68.59
2017-08-29T06:54:07.341Z,68.71
2017-08-29T06:56:08.880Z,68.43
2017-08-29T06:58:11.072Z,68.52
2017-08-29T07:00:12.908Z,68.71
2017-08-29T07:02:14.389Z,68.71
2017-08-29T07:04:15.931Z,68.17
2017-08-29T07:06:17.419Z,68.17
2017-08-29T07:08:19.087Z,68.17
2017-08-29T07:10:21.273Z,68.81
2017-08-29T07:12:22.815Z,69.87
2017-08-29T07:14:24.460Z,70.54
2017-08-29T07:16:25.979Z,71.22
2017-08-29T07:18:27.640Z,72.00
2017-08-29T07:20:29.090Z,72.28
2017-08-29T07:22:30.891Z,72.28
2017-08-29T07:25:13.302Z,71.94
2017-08-29T07:27:14.938Z,72.90
2017-08-29T07:29:16.467Z,73.96
2017-08-29T07:31:17.980Z,73.77
2017-08-29T07:33:19.796Z,74.64
2017-08-29T07:35:21.199Z,75.89
2017-08-29T07:37:22.919Z,75.79
2017-08-29T07:39:24.376Z,76.05
2017-08-29T07:41:25.919Z,76.63
2017-08-29T07:43:27.736Z,76.15
2017-08-29T07:45:29.367Z,75.67
2017-08-29T07:47:31.239Z,77.53
2017-08-29T07:49:33.323Z,77.34
2017-08-29T07:51:35.056Z,77.05
2017-08-29T07:53:37.365Z,76.67
2017-08-29T07:55:38.921Z,76.28
2017-08-29T07:57:40.442Z,75.45
2017-08-29T07:59:41.956Z,76.22
2017-08-29T08:01:43.531Z,76.70
2017-08-29T08:03:45.112Z,76.32
2017-08-29T08:05:46.630Z,75.35
2017-08-29T08:07:48.138Z,76.26
2017-08-29T08:09:49.654Z,75.10
2017-08-29T08:11:51.571Z,74.81
2017-08-29T08:13:53.047Z,74.71
2017-08-29T08:15:54.588Z,74.62
2017-08-29T08:17:56.162Z,75.43
2017-08-29T08:19:57.661Z,75.13
2017-08-29T08:21:59.318Z,74.65
2017-08-29T08:24:00.780Z,72.62
2017-08-29T08:26:02.333Z,73.49
2017-08-29T08:28:03.889Z,73.43
2017-08-29T08:30:05.391Z,71.98
2017-08-29T08:32:06.969Z,72.27
2017-08-29T08:34:08.546Z,70.92
2017-08-29T08:36:10.443Z,70.56
2017-08-29T08:38:12.326Z,70.76
2017-08-29T08:40:13.871Z,70.31
2017-08-29T08:42:15.440Z,70.01
2017-08-29T08:44:16.935Z,69.53
2017-08-29T08:46:18.382Z,69.85
2017-08-29T08:48:19.893Z,69.95
2017-08-29T08:50:21.491Z,67.24
2017-08-29T08:52:23.264Z,67.24
2017-08-29T08:54:24.796Z,67.47
2017-08-29T08:56:26.311Z,67.18
2017-08-29T08:58:27.842Z,65.53
2017-08-29T09:00:29.405Z,66.40
2017-08-29T09:02:30.919Z,64.69
2017-08-29T09:04:32.639Z,64.53
2017-08-29T09:06:34.211Z,65.20
2017-08-29T09:08:35.721Z,65.11
2017-08-29T09:10:37.200Z,64.62
2017-08-29T09:12:38.670Z,64.33
2017-08-29T09:15:21.156Z,64.14
2017-08-29T09:17:22.590Z,62.68
2017-08-29T09:19:24.072Z,63.88
2017-08-29T09:21:25.511Z,63.68
2017-08-29T09:23:26.946Z,64.75
2017-08-29T09:25:28.383Z,62.62
2017-08-29T09:27:29.821Z,63.42
2017-08-29T09:30:12.270Z,62.45
2017-08-29T09:32:13.710Z,60.80
2017-08-29T09:34:15.159Z,60.22
2017-08-29T09:36:16.611Z,62.00
2017-08-29T09:38:18.140Z,59.38
2017-08-29T09:40:19.551Z,59.86
2017-08-29T09:42:21.028Z,59.76
2017-08-29T09:44:22.475Z,59.08
2017-08-29T09:46:23.908Z,59.08
2017-08-29T09:48:25.351Z,59.79
2017-08-29T09:50:26.794Z,58.95
2017-08-29T09:52:28.245Z,57.29
2017-08-29T09:54:29.695Z,55.54
2017-08-29T09:56:31.411Z,56.61
2017-08-29T09:58:33.178Z,55.93
2017-08-29T10:00:34.698Z,56.71
2017-08-29T10:02:36.149Z,54.76
2017-08-29T10:04:37.645Z,54.50
2017-08-29T10:06:39.224Z,54.79
2017-08-29T10:08:40.749Z,55.69
2017-08-29T10:10:42.192Z,55.11
2017-08-29T10:12:43.636Z,52.87
2017-08-29T10:14:45.083Z,51.90
2017-08-29T10:17:27.522Z,53.16
2017-08-29T10:19:28.966Z,51.43
2017-08-29T10:21:30.403Z,52.89
2017-08-29T10:23:31.846Z,52.02
2017-08-29T10:25:33.295Z,51.92
2017-08-29T10:27:34.741Z,50.56
2017-08-29T10:29:36.179Z,48.71
2017-08-29T10:31:37.625Z,49.61
2017-08-29T10:33:39.066Z,50.97
2017-08-29T10:35:40.512Z,49.99
2017-08-29T10:37:41.954Z,50.29
2017-08-29T10:39:43.396Z,49.54
2017-08-29T10:41:44.839Z,50.58
2017-08-29T10:43:46.286Z,50.99
2017-08-29T10:45:47.734Z,51.09
2017-08-29T10:47:49.189Z,50.12
2017-08-29T10:50:30.651Z,47.49
2017-08-29T10:52:32.095Z,49.44
2017-08-29T10:54:33.624Z,47.58
2017-08-29T10:56:35.077Z,47.97
2017-08-29T10:58:36.516Z,47.39
2017-08-29T11:00:38.688Z,50.53
2017-08-29T11:02:40.627Z,48.39
2017-08-29T11:04:42.108Z,48.19
2017-08-29T11:06:43.639Z,48.29
2017-08-29T11:08:45.220Z,48.88
2017-08-29T11:10:46.735Z,49.76
2017-08-29T11:12:48.231Z,49.17
2017-08-29T11:14:49.776Z,47.41
2017-08-29T11:16:51.323Z,47.71
2017-08-29T11:18:52.831Z,46.83
2017-08-29T11:20:54.373Z,45.78
2017-08-29T11:22:55.886Z,46.63
2017-08-29T11:24:57.409Z,47.44
2017-08-29T11:26:58.891Z,46.26
2017-08-29T11:29:00.441Z,48.02
2017-08-29T11:31:01.984Z,47.73
2017-08-29T11:33:03.522Z,46.95
2017-08-29T11:35:05.051Z,46.09
2017-08-29T11:37:06.577Z,46.17
2017-08-29T11:39:08.193Z,47.63
2017-08-29T11:41:09.698Z,46.19
2017-08-29T11:43:11.228Z,45.12
2017-08-29T11:45:12.716Z,45.02
2017-08-29T11:47:14.235Z,44.53
2017-08-29T11:49:15.760Z,44.34
2017-08-29T11:51:17.275Z,44.53
2017-08-29T11:53:18.817Z,44.06
2017-08-29T11:55:20.369Z,44.74
2017-08-29T11:57:21.895Z,45.72
2017-08-29T11:59:23.425Z,45.82
2017-08-29T12:01:25.008Z,45.90
2017-08-29T12:03:26.647Z,45.21
2017-08-29T12:05:28.220Z,44.24
2017-08-29T12:07:29.848Z,44.04
2017-08-29T12:09:31.469Z,43.95
2017-08-29T12:11:32.941Z,43.46
2017-08-29T12:13:34.500Z,43.95
2017-08-29T12:15:36.044Z,44.82
2017-08-29T12:17:37.529Z,45.31
2017-08-29T12:19:39.074Z,46.78
2017-08-29T12:21:40.629Z,44.82
2017-08-29T12:23:42.137Z,45.21
2017-08-29T12:25:43.663Z,44.70
2017-08-29T12:27:45.222Z,45.31
2017-08-29T12:29:46.722Z,42.97
2017-08-29T12:31:48.166Z,42.87
2017-08-29T12:33:49.660Z,42.77
2017-08-29T12:35:51.094Z,42.97
2017-08-29T12:37:52.534Z,44.24
2017-08-29T12:40:34.993Z,45.12
2017-08-29T12:42:37.312Z,44.24
2017-08-29T12:44:38.764Z,43.85
2017-08-29T12:46:40.227Z,43.16
2017-08-29T12:48:41.820Z,45.61
2017-08-29T12:50:43.273Z,44.34
2017-08-29T12:52:44.718Z,43.55
2017-08-29T12:54:46.158Z,43.07
2017-08-29T12:56:47.604Z,44.92
2017-08-29T12:58:49.046Z,44.26
2017-08-29T13:00:50.497Z,43.07
2017-08-29T13:02:51.956Z,42.79
2017-08-29T13:04:53.398Z,43.18
2017-08-29T13:06:54.844Z,42.69
2017-08-29T13:08:56.283Z,44.06
2017-08-29T13:11:38.728Z,42.99
2017-08-29T13:13:40.174Z,41.33
2017-08-29T13:15:41.616Z,43.08
2017-08-29T13:17:43.093Z,43.16
2017-08-29T13:19:44.562Z,43.75
2017-08-29T13:21:46.007Z,42.97
2017-08-29T13:23:47.440Z,42.87
2017-08-29T13:25:48.885Z,44.24
2017-08-29T13:27:50.338Z,43.85
2017-08-29T13:29:51.848Z,43.55
2017-08-29T13:31:53.400Z,43.16
2017-08-29T13:33:54.969Z,42.77
2017-08-29T13:35:56.440Z,45.41
2017-08-29T13:37:57.963Z,44.24
2017-08-29T13:39:59.517Z,44.43
2017-08-29T13:42:41.957Z,43.46
2017-08-29T13:44:43.395Z,43.36
2017-08-29T13:46:44.843Z,44.04
2017-08-29T13:48:46.285Z,45.12
2017-08-29T13:50:47.936Z,43.26
2017-08-29T13:52:49.550Z,44.82
2017-08-29T13:54:50.963Z,44.34
2017-08-29T13:56:52.410Z,44.24
2017-08-29T13:58:54.190Z,45.80
2017-08-29T14:00:56.043Z,43.16
2017-08-29T14:02:57.614Z,43.75
2017-08-29T14:04:59.184Z,42.30
2017-08-29T14:07:00.937Z,43.07
2017-08-29T14:09:02.624Z,43.38
2017-08-29T14:11:04.143Z,42.89
2017-08-29T14:13:05.688Z,42.60
2017-08-29T14:15:07.359Z,41.91
2017-08-29T14:17:08.853Z,42.58
2017-08-29T14:19:10.380Z,42.40
2017-08-29T14:21:11.913Z,43.96
2017-08-29T14:23:13.476Z,43.57
2017-08-29T14:25:14.976Z,43.96
2017-08-29T14:27:16.528Z,43.28
2017-08-29T14:29:18.030Z,42.01
2017-08-29T14:31:19.595Z,41.62
2017-08-29T14:33:21.098Z,42.60
2017-08-29T14:35:23.378Z,42.69
2017-08-29T14:37:24.959Z,41.42
2017-08-29T14:39:26.479Z,41.62
2017-08-29T14:41:28.836Z,42.11
2017-08-29T14:43:30.410Z,41.72
2017-08-29T14:45:31.950Z,41.89
2017-08-29T14:47:33.632Z,42.09
2017-08-29T14:49:35.180Z,42.38
2017-08-29T14:51:39.099Z,42.19
2017-08-29T14:53:40.633Z,41.70
2017-08-29T14:55:42.135Z,41.60
2017-08-29T14:57:43.624Z,41.41
2017-08-29T14:59:45.076Z,41.41
2017-08-29T15:01:46.512Z,41.91
2017-08-29T15:03:47.990Z,42.38
2017-08-29T15:05:49.446Z,42.38
2017-08-29T15:07:51.294Z,42.97
2017-08-29T15:09:53.256Z,42.99
2017-08-29T15:11:55.166Z,43.36
2017-08-29T15:13:56.593Z,42.77
2017-08-29T15:15:58.055Z,42.48
2017-08-29T15:18:00.651Z,42.58
2017-08-29T15:20:02.143Z,41.60
2017-08-29T15:22:03.691Z,40.63
2017-08-29T15:24:05.212Z,41.60
2017-08-29T15:26:06.757Z,41.31
2017-08-29T15:28:08.350Z,41.89
2017-08-29T15:30:09.927Z,41.89
2017-08-29T15:32:11.473Z,41.99
2017-08-29T15:34:13.011Z,42.85
2017-08-29T15:36:14.917Z,42.94
2017-08-29T15:38:16.382Z,42.85
2017-08-29T15:40:19.282Z,43.51
2017-08-29T15:42:20.798Z,43.32
2017-08-29T15:44:22.355Z,42.85
2017-08-29T15:46:23.909Z,42.85
2017-08-29T15:48:25.380Z,43.14
2017-08-29T15:51:08.022Z,43.73
2017-08-29T15:53:10.180Z,43.63
2017-08-29T15:55:11.599Z,43.73
2017-08-29T15:57:13.033Z,44.38
2017-08-29T15:59:14.479Z,43.43
2017-08-29T16:01:15.987Z,44.19
2017-08-29T16:03:17.474Z,43.80
2017-08-29T16:05:19.049Z,43.80
2017-08-29T16:07:20.478Z,43.41
2017-08-29T16:09:21.939Z,43.71
2017-08-29T16:11:23.390Z,42.93
2017-08-29T16:13:24.893Z,44.19
2017-08-29T16:15:26.347Z,43.99
2017-08-29T16:17:27.795Z,44.78
2017-08-29T16:19:29.260Z,44.29
2017-08-29T16:22:11.702Z,44.90
2017-08-29T16:24:13.141Z,44.31
2017-08-29T16:26:14.623Z,43.43
2017-08-29T16:28:16.061Z,43.22
2017-08-29T16:30:17.492Z,43.61
2017-08-29T16:32:18.927Z,44.19
2017-08-29T16:34:20.378Z,44.29
2017-08-29T16:36:21.831Z,44.97
2017-08-29T16:38:23.259Z,45.26
2017-08-29T16:40:24.703Z,44.68
2017-08-29T16:42:26.191Z,45.75
2017-08-29T16:44:27.643Z,45.36
2017-08-29T16:46:29.157Z,45.17
2017-08-29T16:48:30.606Z,44.68
2017-08-29T16:50:32.064Z,45.46
2017-08-29T16:52:33.495Z,45.75
2017-08-29T16:54:34.942Z,46.04
2017-08-29T16:56:36.398Z,46.02
2017-08-29T16:58:37.952Z,46.12
2017-08-29T17:00:39.384Z,47.00
2017-08-29T17:02:41.085Z,46.12
2017-08-29T17:04:42.885Z,45.83
2017-08-29T17:06:44.391Z,45.92
2017-08-29T17:08:45.926Z,46.12
2017-08-29T17:10:48.472Z,45.34
2017-08-29T17:12:49.961Z,47.46
2017-08-29T17:14:51.483Z,48.07
2017-08-29T17:16:53.014Z,46.88
2017-08-29T17:18:54.514Z,47.17
2017-08-29T17:20:56.045Z,48.05
2017-08-29T17:22:57.612Z,48.24
2017-08-29T17:24:59.127Z,49.02
2017-08-29T17:27:00.714Z,49.61
2017-08-29T17:29:02.238Z,50.58
2017-08-29T17:31:03.802Z,50.09
2017-08-29T17:33:05.354Z,51.36
2017-08-29T17:35:07.285Z,51.43
2017-08-29T17:37:08.988Z,51.95
2017-08-29T17:39:10.474Z,51.24
2017-08-29T17:41:12.020Z,50.95
2017-08-29T17:43:13.572Z,50.85
2017-08-29T17:45:15.131Z,51.43
2017-08-29T17:47:16.674Z,51.63
2017-08-29T17:49:18.126Z,51.41
2017-08-29T17:51:19.589Z,52.77
2017-08-29T17:53:21.170Z,51.99
2017-08-29T17:55:22.701Z,53.26
2017-08-29T17:57:24.192Z,53.06
2017-08-29T17:59:26.208Z,53.52
2017-08-29T18:01:27.974Z,53.42
2017-08-29T18:03:30.140Z,52.94
2017-08-29T18:05:32.276Z,53.33
2017-08-29T18:07:33.915Z,54.11
2017-08-29T18:09:35.424Z,54.08
2017-08-29T18:11:36.910Z,54.38
2017-08-29T18:13:38.545Z,54.38
2017-08-29T18:15:40.337Z,54.76
2017-08-29T18:17:42.422Z,55.64
2017-08-29T18:19:43.890Z,55.13
2017-08-29T18:21:45.359Z,55.51
2017-08-29T18:23:47.083Z,55.71
2017-08-29T18:25:48.867Z,56.20
2017-08-29T18:28:30.324Z,56.20
2017-08-29T18:30:31.760Z,56.39
2017-08-29T18:32:33.190Z,55.80
2017-08-29T18:34:34.638Z,56.68
2017-08-29T18:36:36.074Z,57.26
2017-08-29T18:38:37.512Z,57.62
2017-08-29T18:40:38.940Z,57.43
2017-08-29T18:42:40.383Z,57.92
2017-08-29T18:44:41.817Z,58.21
2017-08-29T18:46:43.322Z,58.01
2017-08-29T18:48:44.770Z,58.79
2017-08-29T18:50:46.828Z,58.79
2017-08-29T18:52:48.204Z,59.38
2017-08-29T18:54:49.638Z,59.44
2017-08-29T18:56:51.116Z,59.15
2017-08-29T18:58:52.538Z,59.15
2017-08-29T19:00:53.976Z,59.15
2017-08-29T19:02:55.407Z,59.34
2017-08-29T19:04:56.844Z,59.34
2017-08-29T19:06:58.278Z,59.74
2017-08-29T19:08:59.714Z,60.31
2017-08-29T19:11:01.149Z,60.51
2017-08-29T19:13:02.620Z,60.38
2017-08-29T19:15:04.062Z,60.38
2017-08-29T19:17:05.483Z,60.87
2017-08-29T19:19:06.921Z,60.19
2017-08-29T19:21:08.354Z,60.68
2017-08-29T19:23:09.790Z,60.38
2017-08-29T19:25:11.222Z,60.48
2017-08-29T19:27:12.652Z,60.68
2017-08-29T19:29:14.088Z,60.77
2017-08-29T19:31:15.553Z,60.06
2017-08-29T19:33:17.007Z,60.28
2017-08-29T19:35:18.439Z,59.97
2017-08-29T19:37:19.891Z,59.97
2017-08-29T19:39:21.303Z,59.77
2017-08-29T19:41:22.736Z,59.58
2017-08-29T19:43:24.247Z,59.38
2017-08-29T19:45:25.724Z,59.38
2017-08-29T19:47:27.280Z,59.28
2017-08-29T19:49:28.730Z,59.77
2017-08-29T19:51:30.158Z,60.06
2017-08-29T19:53:31.634Z,59.97
2017-08-29T19:55:33.116Z,59.87
2017-08-29T19:57:34.627Z,59.97
2017-08-29T19:59:36.134Z,59.97
2017-08-29T20:01:37.587Z,60.55
2017-08-29T20:03:39.280Z,60.35
2017-08-29T20:05:40.806Z,59.84
2017-08-29T20:07:42.354Z,60.42
2017-08-29T20:09:43.937Z,61.00
2017-08-29T20:11:45.464Z,60.23
2017-08-29T20:13:46.936Z,60.91
2017-08-29T20:15:48.484Z,60.81
2017-08-29T20:18:31.125Z,60.91
2017-08-29T20:20:32.689Z,61.19
2017-08-29T20:22:34.167Z,61.10
2017-08-29T20:24:35.615Z,61.36
2017-08-29T20:26:37.052Z,61.26
2017-08-29T20:28:38.486Z,61.26
2017-08-29T20:30:39.917Z,60.78
2017-08-29T20:32:41.355Z,61.55
2017-08-29T20:34:44.126Z,61.36
2017-08-29T20:36:45.554Z,61.46
2017-08-29T20:38:46.994Z,61.55
2017-08-29T20:40:48.428Z,62.13
2017-08-29T20:42:49.859Z,61.94
2017-08-29T20:44:51.297Z,61.94
2017-08-29T20:46:52.732Z,62.04
2017-08-29T20:48:54.154Z,62.13
2017-08-29T20:51:36.587Z,62.43
2017-08-29T20:53:38.014Z,62.30
2017-08-29T20:55:39.456Z,62.49
2017-08-29T20:57:40.889Z,62.40
2017-08-29T20:59:42.444Z,62.79
2017-08-29T21:01:43.931Z,63.37
2017-08-29T21:03:45.391Z,63.46
2017-08-29T21:05:46.968Z,63.07
2017-08-29T21:07:48.398Z,63.07
2017-08-29T21:09:49.829Z,63.46
2017-08-29T21:11:51.260Z,63.17
2017-08-29T21:13:52.690Z,63.27
2017-08-29T21:15:54.119Z,63.37
2017-08-29T21:17:55.553Z,63.46
2017-08-29T21:19:56.982Z,63.95
2017-08-29T21:21:58.631Z,63.85
2017-08-29T21:24:00.366Z,63.85
2017-08-29T21:26:01.952Z,63.82
2017-08-29T21:28:03.524Z,63.85
2017-08-29T21:30:05.115Z,63.75
2017-08-29T21:32:06.564Z,63.65
2017-08-29T21:34:07.979Z,64.04
2017-08-29T21:36:09.403Z,64.14
2017-08-29T21:38:10.848Z,63.14
2017-08-29T21:40:12.290Z,64.01
2017-08-29T21:42:13.707Z,64.24
2017-08-29T21:44:15.137Z,63.56
2017-08-29T21:46:16.586Z,64.04
2017-08-29T21:48:18.035Z,63.53
2017-08-29T21:50:19.463Z,64.34
2017-08-29T21:52:20.901Z,64.14
2017-08-29T21:55:03.296Z,63.75
2017-08-29T21:57:04.735Z,63.75
2017-08-29T21:59:06.164Z,63.65
2017-08-29T22:01:07.612Z,64.04
2017-08-29T22:03:09.041Z,63.75
2017-08-29T22:05:10.482Z,63.72
2017-08-29T22:07:11.905Z,64.11
2017-08-29T22:09:13.333Z,64.24
2017-08-29T22:11:14.763Z,64.40
2017-08-29T22:13:16.194Z,64.40
2017-08-29T22:15:17.629Z,64.50
2017-08-29T22:17:19.051Z,64.50
2017-08-29T22:19:20.483Z,64.89
2017-08-29T22:21:21.905Z,64.59
2017-08-29T22:23:23.343Z,64.40
2017-08-29T22:26:05.766Z,64.98
2017-08-29T22:28:07.216Z,64.79
2017-08-29T22:30:08.651Z,64.89
2017-08-29T22:32:10.075Z,64.89
2017-08-29T22:34:11.507Z,65.27
2017-08-29T22:36:12.937Z,65.27
2017-08-29T22:38:14.371Z,65.37
2017-08-29T22:40:56.807Z,65.37
2017-08-29T22:42:58.277Z,65.37
2017-08-29T22:44:59.698Z,65.17
2017-08-29T22:47:01.129Z,64.98
2017-08-29T22:49:02.558Z,64.98
2017-08-29T22:51:04.035Z,65.14
2017-08-29T22:53:05.466Z,64.59
2017-08-29T22:55:06.925Z,64.40
2017-08-29T22:57:08.397Z,64.30
2017-08-29T22:59:09.825Z,64.01
2017-08-29T23:01:11.296Z,63.72
2017-08-29T23:03:12.766Z,64.11
2017-08-29T23:05:14.210Z,63.69
2017-08-29T23:07:15.641Z,63.53
2017-08-29T23:09:17.113Z,62.95
2017-08-29T23:11:18.567Z,63.14
2017-08-29T23:13:20.139Z,63.04
2017-08-29T23:15:21.654Z,63.34
2017-08-29T23:17:23.101Z,62.95
2017-08-29T23:19:24.586Z,62.46
2017-08-29T23:21:26.100Z,62.75
2017-08-29T23:23:27.599Z,62.66
2017-08-29T23:25:29.120Z,62.46
2017-08-29T23:28:10.762Z,62.27
2017-08-29T23:30:12.200Z,62.85
2017-08-29T23:32:13.642Z,62.75
2017-08-29T23:34:15.062Z,62.46
2017-08-29T23:36:16.499Z,62.14
2017-08-29T23:38:17.933Z,62.63
2017-08-29T23:40:19.367Z,62.56
2017-08-29T23:42:20.793Z,62.75
2017-08-29T23:45:03.206Z,62.37
2017-08-29T23:47:04.641Z,62.66
2017-08-29T23:49:06.072Z,62.46
2017-08-29T23:51:07.513Z,62.46
2017-08-29T23:53:08.956Z,62.85
2017-08-29T23:55:10.458Z,62.66
2017-08-29T23:57:11.891Z,62.53
2017-08-29T23:59:13.319Z,62.56
